• Join FlightAware (Why Join?)
  • Login
  • US Flag 
05:26PM EDT


 

Airport Tracker/Info


-or-


 

Live Flight TrackerFlight Track Log ✈ ANT506 ✈ 08-Jul-2013 ✈ CYVR - CYXY

Flight Track Log - Related Links

Times and Time Zones

All times are in EDT time to prevent confusion due to time zone crossing. See the ANT506 flight status page for this flight to view local times or setup timezone preferences in your user account.

Time Position Orientation Groundspeed Altitude Reporting Facility
EDT Latitude Longitude Course Direction KTS MPH feet Rate Location/Type
02:22PM 49.1833 -123.2667 North 210 242 2,100  Level Vancouver Center
02:23PM 49.1833 -123.3667 270° West 220 253 5,300 2,700 Climbing Vancouver Center
02:24PM 49.2333 -123.4167 327° Northwest 220 253 7,600 1,800 Climbing Vancouver Center
02:25PM 49.3000 -123.4333 351° North 280 322 9,000 660 Climbing Vancouver Center
02:26PM 49.7482 -123.6778 334° Northwest  Level FlightAware Approximate
02:26PM 49.3833 -123.4167 North 280 322 9,000  Level Vancouver Center
02:27PM 49.8461 -123.7500 North  Level FlightAware Approximate
02:27PM 49.4500 -123.3667 26° Northeast 280 322 9,100  Level Vancouver Center
02:28PM 49.5333 -123.3333 15° North 290 334 11,200 2,580 Climbing Vancouver Center
02:29PM 49.6167 -123.3333 360° North 330 380 14,300 3,000 Climbing Vancouver Center
02:30PM 49.7167 -123.3833 342° North 350 403 17,300 3,120 Climbing Vancouver Center
02:31PM 49.8167 -123.4333 342° North 370 426 20,600 3,000 Climbing Vancouver Center
02:32PM 49.9000 -123.5167 327° Northwest 370 426 23,300 2,460 Climbing Vancouver Center
02:33PM 50.0000 -123.5833 337° Northwest 390 449 25,600 2,160 Climbing Vancouver Center
02:34PM 50.1000 -123.6667 332° Northwest 400 460 27,700 2,340 Climbing Vancouver Center
02:35PM 50.2167 -123.7500 335° Northwest 410 472 30,300 2,400 Climbing Vancouver Center
02:36PM 50.3000 -123.8000 339° North 400 460 32,600 2,100 Climbing Vancouver Center
02:37PM 50.4000 -123.8833 332° Northwest 390 449 34,500 1,620 Climbing Vancouver Center
02:38PM 50.5000 -123.9500 337° Northwest 380 437 35,900 720 Climbing Vancouver Center
02:39PM 50.6000 -124.0333 332° Northwest 390 449 36,000  Climbing Vancouver Center
02:40PM 50.7000 -124.1167 332° Northwest 390 449 36,000  Level Vancouver Center
02:41PM 50.8000 -124.1667 342° North 390 449 36,000  Level Vancouver Center
02:42PM 50.9000 -124.2500 332° Northwest 390 449 36,000  Level Vancouver Center
02:43PM 50.9833 -124.3333 328° Northwest 390 449 36,000  Level Vancouver Center
02:44PM 51.0833 -124.3833 343° North 390 449 36,000  Level Vancouver Center
02:45PM 51.1833 -124.4667 332° Northwest 390 449 36,000  Level Vancouver Center
02:46PM 51.2833 -124.5500 332° Northwest 390 449 36,000  Level Vancouver Center
02:47PM 51.3833 -124.6333 333° Northwest 390 449 36,000  Level Vancouver Center
02:48PM 51.4833 -124.7167 333° Northwest 390 449 36,000  Level Vancouver Center
02:49PM 51.5833 -124.7667 343° North 390 449 36,000  Level Vancouver Center
02:50PM 51.6667 -124.8500 328° Northwest 390 449 36,000  Level Vancouver Center
02:51PM 51.7667 -124.9333 333° Northwest 390 449 36,000  Level Vancouver Center
02:52PM 51.8667 -125.0167 333° Northwest 390 449 36,000  Level Vancouver Center
02:53PM 51.9667 -125.0667 343° North 390 449 36,000  Level Vancouver Center
02:54PM 52.0667 -125.1500 333° Northwest 390 449 36,000  Level Vancouver Center
02:55PM 52.1667 -125.2333 333° Northwest 390 449 36,000  Level Vancouver Center
02:56PM 52.2500 -125.3167 329° Northwest 390 449 36,000  Level Vancouver Center
02:57PM 52.3667 -125.3833 341° North 390 449 36,000  Level Vancouver Center
02:58PM 52.4500 -125.4667 329° Northwest 390 449 36,000  Level Vancouver Center
02:59PM 52.5500 -125.5500 333° Northwest 390 449 36,000  Level Vancouver Center
03:00PM 52.6500 -125.6333 333° Northwest 400 460 36,000  Level Vancouver Center
03:01PM 52.7500 -125.7333 329° Northwest 400 460 36,000  Level Vancouver Center
03:02PM 52.8500 -125.7833 343° North 400 460 36,000  Level Vancouver Center
03:03PM 52.9500 -125.8667 333° Northwest 400 460 36,000  Level Vancouver Center
03:04PM 53.0500 -125.9667 329° Northwest 400 460 36,000  Level Vancouver Center
03:05PM 53.1333 -126.0500 329° Northwest 400 460 36,000  Level Vancouver Center
03:06PM 53.2500 -126.1333 337° Northwest 400 460 36,000  Level Vancouver Center
03:07PM 53.3333 -126.2333 324° Northwest 400 460 36,000  Level Vancouver Center
03:08PM 53.4333 -126.2833 343° North 410 472 36,000  Level Vancouver Center
03:09PM 53.5500 -126.3833 333° Northwest 400 460 36,000  Level Vancouver Center
03:10PM 53.6333 -126.4667 329° Northwest 400 460 36,000  Level Vancouver Center
03:11PM 53.7500 -126.5667 333° Northwest 400 460 36,000  Level Vancouver Center
03:12PM 53.8500 -126.6500 334° Northwest 400 460 36,000  Level Vancouver Center
03:13PM 53.9500 -126.7500 330° Northwest 400 460 36,000  Level Vancouver Center
03:14PM 54.0500 -126.8333 334° Northwest 410 472 36,000  Level Vancouver Center
03:15PM 54.1333 -126.9333 325° Northwest 410 472 36,000  Level Vancouver Center
03:16PM 54.2333 -127.0167 334° Northwest 410 472 36,000  Level Vancouver Center
03:17PM 54.3333 -127.0833 339° North 410 472 36,000  Level Vancouver Center
03:18PM 54.4500 -127.1833 334° Northwest 410 472 36,000  Level Vancouver Center
03:19PM 54.5500 -127.2833 330° Northwest 410 472 36,000  Level Vancouver Center
03:20PM 54.6500 -127.3667 334° Northwest 420 483 36,000  Level Vancouver Center
03:21PM 54.7667 -127.4667 334° Northwest 410 472 36,000  Level Vancouver Center
03:22PM 54.8500 -127.5667 325° Northwest 420 483 36,000  Level Vancouver Center
03:23PM 54.9500 -127.6667 330° Northwest 410 472 36,000  Level Vancouver Center
03:24PM 55.0500 -127.7500 334° Northwest 400 460 36,000  Level Vancouver Center
03:25PM 55.1500 -127.8500 330° Northwest 390 449 36,000  Level Vancouver Center
03:26PM 55.2667 -127.9500 334° Northwest 420 483 36,000  Level Vancouver Center
03:27PM 55.3667 -128.0500 330° Northwest 410 472 36,000  Level Vancouver Center
03:28PM 55.4667 -128.1500 330° Northwest 410 472 36,000  Level Vancouver Center
03:29PM 55.5500 -128.2500 326° Northwest 420 483 36,000  Level Vancouver Center
03:30PM 55.6500 -128.3500 331° Northwest 420 483 36,000  Level Vancouver Center
03:31PM 55.7667 -128.4500 334° Northwest 430 495 36,000  Level Vancouver Center
03:32PM 55.8833 -128.5500 334° Northwest 430 495 36,000  Level Vancouver Center
03:33PM 55.9833 -128.6833 323° Northwest 420 483 36,000  Level Vancouver Center
03:34PM 56.0667 -128.7500 336° Northwest 410 472 36,000  Level Vancouver Center
03:35PM 56.1833 -128.8500 335° Northwest 430 495 36,000  Level Vancouver Center
03:36PM 56.2833 -128.9667 327° Northwest 410 472 36,000  Level Vancouver Center
03:37PM 56.3833 -129.0667 331° Northwest 450 518 36,000  Level Vancouver Center
03:38PM 56.4833 -129.1667 331° Northwest 430 495 36,000  Level Vancouver Center
03:39PM 56.5833 -129.2667 331° Northwest 440 506 36,000  Level Vancouver Center
03:40PM 56.7000 -129.3833 331° Northwest 440 506 36,000  Level Vancouver Center
03:41PM 56.7833 -129.4833 327° Northwest 410 472 36,000  Level Vancouver Center
03:42PM 56.9000 -129.6167 328° Northwest 440 506 36,000  Level Vancouver Center
03:43PM 56.9833 -129.7333 323° Northwest 440 506 36,000  Level Vancouver Center
03:44PM 57.0833 -129.8667 324° Northwest 400 460 36,000  Level Vancouver Center
03:45PM 57.1667 -129.9667 327° Northwest 420 483 36,000  Level Vancouver Center
03:47PM 57.2805 -130.1113 326° Northwest  Level FlightAware Approximate
03:54PM 57.8781 -130.9075 324° Northwest  Level FlightAware Approximate
03:55PM 57.9621 -131.0259 323° Northwest  Level FlightAware Approximate
03:56PM 58.0460 -131.1448 323° Northwest  Level FlightAware Approximate
03:57PM 58.1298 -131.2643 323° Northwest  Level FlightAware Approximate
03:58PM 58.2135 -131.3843 323° Northwest  Level FlightAware Approximate
03:59PM 58.2971 -131.5049 323° Northwest  Level FlightAware Approximate
04:00PM 58.3812 -131.6242 324° Northwest  Level FlightAware Approximate
04:01PM 58.4655 -131.7436 324° Northwest  Level FlightAware Approximate
04:02PM 58.5497 -131.8635 323° Northwest  Level FlightAware Approximate
04:03PM 58.6338 -131.9840 322° Northwest  Level FlightAware Approximate
04:04PM 58.7155 -132.1104 318° Northwest  Level FlightAware Approximate
04:05PM 58.7954 -132.2411 323° Northwest  Level FlightAware Approximate
04:06PM 58.8796 -132.3620 323° Northwest  Level FlightAware Approximate
04:07PM 58.9637 -132.4836 323° Northwest  Level FlightAware Approximate
04:08PM 59.0477 -132.6057 323° Northwest  Level FlightAware Approximate
04:09PM 59.1310 -132.7299 322° Northwest  Level FlightAware Approximate
04:10PM 59.2099 -132.8648 323° Northwest  Level FlightAware Approximate
04:11PM 59.2932 -132.9897 323° Northwest  Level FlightAware Approximate
04:12PM 59.3774 -133.1122 324° Northwest  Level FlightAware Approximate
04:13PM 59.4617 -133.2350 323° Northwest  Level FlightAware Approximate
04:14PM 59.5437 -133.3640 321° Northwest  Level FlightAware Approximate
04:15PM 59.6248 -133.4955 321° Northwest  Level FlightAware Approximate
04:16PM 59.7058 -133.6276 321° Northwest  Level FlightAware Approximate
04:17PM 59.7868 -133.7600 321° Northwest  Level FlightAware Approximate
04:18PM 59.8678 -133.8927 321° Northwest  Level FlightAware Approximate
04:19PM 59.9486 -134.0261 320° Northwest  Level FlightAware Approximate
04:20PM 60.0294 -134.1601 320° Northwest  Level FlightAware Approximate
04:21PM 60.1101 -134.2944 320° Northwest  Level FlightAware Approximate
04:22PM 60.1915 -134.4275 321° Northwest  Level FlightAware Approximate
04:23PM 60.2731 -134.5602 322° Northwest  Level FlightAware Approximate
04:24PM 60.3554 -134.6916 322° Northwest  Level FlightAware Approximate
04:25PM 60.4375 -134.8239 319° Northwest  Level FlightAware Approximate
04:26PM 60.5170 -134.9628 319° Northwest  Level FlightAware Approximate
04:27PM 60.5971 -135.1007 321° Northwest  Level FlightAware Approximate
04:28PM 60.6907 -135.0737 20° North  Level FlightAware Approximate
04:29PM 60.7000 -135.0667 20° North  Level FlightAware Approximate
04:30PM 60.7095 -135.0673 20° North  Level Estimated
04:31PM 60.7095 -135.0673 20° North  Level Estimated
04:32PM 60.7095 -135.0673 20° North  Level Estimated